Terminal Aerodrome Forecast
Issued by NWS Brownsville, TX

Home | Current Version | Previous Version | Text Only | Print | Product List | Glossary On
Versions: 1 2 3 4 5 6 7 8 9 10 11 12 13 14 15 16 17 18 19 20
000
FTUS44 KBRO 231100
TAFHRL
TAF
KHRL 231132Z 2312/2412 03006KT P6SM FEW040 BKN090=

USA.gov is the U.S. government's official web portal to all federal, state and local government web resources and services.